Time;durP1;ratioP1;P1;durP2;ratioP2;P2;SDS_P1;SDS_P2;PMS_P1;PMS_P2;Temp;Humidity;BMP_temperature;BMP_pressure;BME280_temperature;BME280_humidity;BME280_pressure;Samples;Min_cycle;Max_cycle;Signal;HPM_P1;HPM_P2
2022/01/11 00:03:58;;;;;;;70.30;29.77;;;0.70;99.90;;;;;;12352856;28;20103;-85
2022/01/11 00:10:01;;;;;;;79.30;29.83;;;0.70;99.90;;;;;;12363496;28;20039;-83
2022/01/11 00:16:05;;;;;;;87.45;32.83;;;0.80;99.90;;;;;;12316145;28;20847;-83
2022/01/11 00:22:15;;;;;;;75.90;29.52;;;0.70;99.90;;;;;;12339067;28;20120;-84
2022/01/11 00:28:19;;;;;;;66.22;26.90;;;0.60;99.90;;;;;;12343948;28;20128;-85
2022/01/11 00:34:24;;;;;;;65.18;28.02;;;0.50;99.90;;;;;;12356619;28;20053;-87
2022/01/11 00:40:25;;;;;;;67.10;27.75;;;0.40;99.90;;;;;;12361258;28;20759;-85
2022/01/11 00:46:27;;;;;;;73.15;27.13;;;0.40;99.90;;;;;;12358852;28;20471;-85
2022/01/11 00:52:29;;;;;;;62.97;27.08;;;0.20;99.90;;;;;;12321968;28;20562;-85
2022/01/11 00:58:31;;;;;;;70.95;28.45;;;0.20;99.90;;;;;;12303723;28;20047;-85
2022/01/11 01:04:33;;;;;;;73.80;26.55;;;0.20;99.90;;;;;;12324824;28;20159;-85
2022/01/11 01:10:37;;;;;;;68.03;26.45;;;0.10;99.90;;;;;;12314504;28;20160;-85
2022/01/11 01:16:40;;;;;;;73.20;27.23;;;0.00;99.90;;;;;;12356896;28;20324;-85
2022/01/11 01:22:41;;;;;;;72.05;27.13;;;0.00;99.90;;;;;;12345566;28;20043;-85
2022/01/11 01:28:45;;;;;;;67.97;25.27;;;0.00;99.90;;;;;;12320524;28;20540;-86
2022/01/11 01:34:49;;;;;;;71.77;23.27;;;-0.10;99.90;;;;;;12308258;28;20141;-83
2022/01/11 01:40:57;;;;;;;52.30;23.13;;;0.20;99.90;;;;;;12308876;28;20092;-85
2022/01/11 01:46:59;;;;;;;41.58;20.65;;;0.00;99.90;;;;;;12300821;28;20101;-85
2022/01/11 01:53:04;;;;;;;205.50;28.65;;;-0.30;99.90;;;;;;12312050;28;20133;-84
2022/01/11 01:59:06;;;;;;;293.45;32.30;;;-0.30;99.90;;;;;;12340144;28;20054;-84
2022/01/11 02:05:08;;;;;;;175.73;25.95;;;-0.20;99.90;;;;;;12351456;28;20081;-85
2022/01/11 02:11:13;;;;;;;109.25;20.75;;;0.00;99.90;;;;;;12371539;28;20069;-85
2022/01/11 02:17:15;;;;;;;;;;;-0.10;99.90;;;;;;12360508;28;20107;-85
2022/01/11 02:23:18;;;;;;;264.23;25.20;;;-0.30;99.90;;;;;;12358462;28;19926;-83
2022/01/11 02:29:21;;;;;;;255.83;28.87;;;-0.10;99.90;;;;;;12361884;28;20662;-84
2022/01/11 02:35:22;;;;;;;63.42;18.35;;;-0.10;99.90;;;;;;12333235;28;20081;-84
2022/01/11 02:41:29;;;;;;;83.38;18.83;;;0.00;99.90;;;;;;12372623;28;20088;-84
2022/01/11 02:47:32;;;;;;;112.05;19.73;;;0.10;99.90;;;;;;12387481;28;20042;-83
2022/01/11 02:53:42;;;;;;;201.95;23.05;;;0.00;99.90;;;;;;12402031;28;20054;-83
2022/01/11 02:59:44;;;;;;;173.02;22.25;;;-0.10;99.90;;;;;;12401984;28;20084;-84
2022/01/11 03:05:47;;;;;;;194.95;21.40;;;-0.20;99.90;;;;;;12389991;28;20490;-84
2022/01/11 03:11:49;;;;;;;169.00;25.73;;;0.00;99.90;;;;;;12402874;28;20508;-84
2022/01/11 03:17:51;;;;;;;143.88;23.88;;;-0.20;99.90;;;;;;12394158;28;20084;-82
2022/01/11 03:23:53;;;;;;;127.18;22.42;;;-0.30;99.90;;;;;;12388064;28;20077;-83
2022/01/11 03:29:55;;;;;;;123.78;20.38;;;-0.30;99.90;;;;;;12410615;28;20046;-84
2022/01/11 03:35:57;;;;;;;55.85;19.42;;;-0.50;99.90;;;;;;12408132;28;20046;-83
2022/01/11 03:41:59;;;;;;;48.55;19.08;;;-0.70;99.90;;;;;;12391280;28;20058;-84
2022/01/11 03:48:02;;;;;;;33.35;18.50;;;-0.90;99.90;;;;;;12397161;28;20108;-84
2022/01/11 03:54:15;;;;;;;27.48;18.67;;;-0.90;99.90;;;;;;12395795;28;20058;-82
2022/01/11 04:00:19;;;;;;;100.40;19.60;;;-0.90;99.90;;;;;;12403176;28;20143;-84
2022/01/11 04:06:20;;;;;;;172.73;22.60;;;-0.90;99.90;;;;;;12388816;28;20464;-83
2022/01/11 04:12:23;;;;;;;222.15;20.23;;;-0.70;99.90;;;;;;12394538;28;20050;-83
2022/01/11 04:18:26;;;;;;;328.13;27.50;;;-0.70;99.90;;;;;;12387681;28;20058;-81
2022/01/11 04:24:28;;;;;;;256.80;23.45;;;-0.90;99.90;;;;;;12384265;28;20050;-83
2022/01/11 04:30:29;;;;;;;207.80;19.48;;;-0.80;99.90;;;;;;12402513;28;20050;-83
2022/01/11 04:36:33;;;;;;;357.52;26.42;;;-0.80;99.90;;;;;;12392468;28;20062;-83
2022/01/11 04:42:35;;;;;;;356.73;22.50;;;-0.70;99.90;;;;;;12392757;28;20506;-83
2022/01/11 04:48:37;;;;;;;228.82;20.17;;;-0.70;99.90;;;;;;12386926;28;20047;-83
2022/01/11 04:54:40;;;;;;;106.38;13.43;;;-1.10;99.90;;;;;;12393381;28;20084;-84
2022/01/11 05:00:42;;;;;;;103.43;15.82;;;-1.20;99.90;;;;;;12401075;28;20581;-83
2022/01/11 05:06:44;;;;;;;236.57;17.48;;;-1.20;99.90;;;;;;12396968;28;20054;-85
2022/01/11 05:12:46;;;;;;;72.10;11.82;;;-1.20;99.90;;;;;;12394072;28;20054;-83
2022/01/11 05:18:48;;;;;;;45.92;12.10;;;-1.00;99.90;;;;;;12405100;28;20108;-83
2022/01/11 05:24:49;;;;;;;102.38;13.70;;;-1.00;99.90;;;;;;12400998;28;20054;-82
2022/01/11 05:30:51;;;;;;;146.57;13.82;;;-1.00;99.90;;;;;;12401590;28;20047;-83
2022/01/11 05:36:54;;;;;;;157.45;14.15;;;-1.20;99.90;;;;;;12386954;28;20525;-83
2022/01/11 05:42:56;;;;;;;71.30;11.05;;;-1.30;99.90;;;;;;12391259;28;20112;-83
2022/01/11 05:48:58;;;;;;;24.15;10.10;;;-1.40;99.90;;;;;;12408891;28;20058;-83
2022/01/11 05:54:59;;;;;;;33.53;13.00;;;-1.60;99.90;;;;;;12381511;28;20179;-83
2022/01/11 06:01:02;;;;;;;15.95;10.80;;;-1.70;99.90;;;;;;12381987;28;20126;-82
2022/01/11 06:07:06;;;;;;;;;;;-1.80;99.90;;;;;;12389093;28;20049;-84
2022/01/11 06:13:08;;;;;;;15.15;10.45;;;-1.60;99.90;;;;;;12382224;28;19929;-82
2022/01/11 06:19:09;;;;;;;15.50;9.57;;;-1.50;99.90;;;;;;12399187;28;20110;-82
2022/01/11 06:25:11;;;;;;;12.80;8.93;;;-1.50;99.90;;;;;;12395555;28;20042;-84
2022/01/11 06:31:13;;;;;;;43.05;10.75;;;-1.50;99.90;;;;;;12397610;28;20046;-83
2022/01/11 06:37:15;;;;;;;166.00;14.98;;;-1.50;99.90;;;;;;12387908;28;20107;-83
2022/01/11 06:43:18;;;;;;;87.93;14.05;;;-1.60;99.90;;;;;;12403182;28;20061;-84
2022/01/11 06:49:19;;;;;;;70.35;12.10;;;-1.50;99.90;;;;;;12423675;28;20050;-82
2022/01/11 06:55:21;;;;;;;133.63;13.75;;;-1.40;99.90;;;;;;12417987;28;20046;-83
2022/01/11 07:01:23;;;;;;;135.07;13.50;;;-1.30;99.90;;;;;;12435182;28;20050;-82
2022/01/11 07:07:25;;;;;;;18.92;10.73;;;-1.30;99.90;;;;;;12413943;28;20503;-83
2022/01/11 07:13:29;;;;;;;21.20;10.47;;;-1.40;99.90;;;;;;12392959;28;20177;-84
2022/01/11 07:19:31;;;;;;;14.45;9.63;;;-1.70;99.90;;;;;;12387490;28;20100;-84
2022/01/11 07:25:33;;;;;;;15.73;9.52;;;-1.70;99.90;;;;;;12376716;28;20679;-83
2022/01/11 07:31:37;;;;;;;19.05;9.48;;;-1.40;99.90;;;;;;12387188;28;20046;-86
2022/01/11 07:37:39;;;;;;;18.60;8.75;;;-1.70;99.90;;;;;;12399555;28;20061;-83
2022/01/11 07:43:40;;;;;;;20.35;8.30;;;-1.60;99.90;;;;;;12373694;28;20092;-83
2022/01/11 07:49:42;;;;;;;18.45;8.35;;;-1.60;99.90;;;;;;12393679;28;20141;-83
2022/01/11 07:55:44;;;;;;;13.77;8.10;;;-1.60;99.90;;;;;;12400722;28;20088;-83
2022/01/11 08:01:46;;;;;;;14.07;8.77;;;-1.30;99.90;;;;;;12400351;28;20054;-83
2022/01/11 08:07:50;;;;;;;31.17;9.68;;;-1.20;99.90;;;;;;12396192;28;20092;-83
2022/01/11 08:13:51;;;;;;;34.15;11.40;;;-1.10;99.90;;;;;;12386576;28;20050;-84
2022/01/11 08:19:53;;;;;;;106.00;11.50;;;-1.10;99.90;;;;;;12406627;28;20054;-82
2022/01/11 08:25:55;;;;;;;72.72;11.73;;;-1.10;99.90;;;;;;12395164;28;20084;-84
2022/01/11 08:31:57;;;;;;;63.58;11.63;;;-1.10;99.90;;;;;;12405190;28;20049;-85
2022/01/11 08:37:59;;;;;;;91.95;13.48;;;-1.00;99.90;;;;;;12397874;28;20140;-84
2022/01/11 08:44:01;;;;;;;110.72;11.73;;;-0.80;99.90;;;;;;12396722;28;20046;-83
2022/01/11 08:50:06;;;;;;;65.00;10.02;;;-0.80;99.90;;;;;;12386688;28;21277;-84
2022/01/11 08:56:08;;;;;;;64.80;11.57;;;-0.60;99.90;;;;;;12407329;28;20177;-84
2022/01/11 09:02:13;;;;;;;64.85;10.38;;;-0.50;99.90;;;;;;12390468;28;20050;-83
2022/01/11 09:08:15;;;;;;;25.73;9.95;;;-0.40;99.90;;;;;;12383014;28;20534;-84
2022/01/11 09:14:17;;;;;;;46.30;9.65;;;-0.40;99.90;;;;;;12383485;28;20045;-83
2022/01/11 09:20:19;;;;;;;47.28;9.50;;;-0.30;99.90;;;;;;12394363;28;20096;-84
2022/01/11 09:26:21;;;;;;;164.70;15.27;;;-0.70;99.90;;;;;;12376847;28;20566;-85
2022/01/11 09:32:25;;;;;;;162.27;13.40;;;-0.60;99.90;;;;;;12391554;28;20576;-84
2022/01/11 09:38:28;;;;;;;30.35;9.10;;;-0.60;99.90;;;;;;12395452;28;20125;-85
2022/01/11 09:44:32;;;;;;;139.13;11.38;;;-0.30;99.90;;;;;;12388639;28;20038;-84
2022/01/11 09:50:34;;;;;;;42.17;8.48;;;-0.20;99.90;;;;;;12406115;28;20778;-82
2022/01/11 09:56:37;;;;;;;37.10;9.32;;;-0.30;99.90;;;;;;12397077;28;20066;-82
2022/01/11 10:02:39;;;;;;;26.45;8.80;;;-0.30;99.90;;;;;;12387593;28;20054;-85
2022/01/11 10:08:41;;;;;;;13.88;8.88;;;-0.10;99.90;;;;;;12391568;28;20066;-84
2022/01/11 10:14:52;;;;;;;23.13;9.38;;;0.00;99.90;;;;;;12383202;28;20133;-82
2022/01/11 10:20:54;;;;;;;13.88;8.80;;;0.30;99.90;;;;;;12382051;28;20502;-84
2022/01/11 10:26:56;;;;;;;15.02;8.98;;;0.30;99.90;;;;;;12383676;28;20107;-84
2022/01/11 10:33:01;;;;;;;16.45;10.73;;;0.50;99.90;;;;;;12376491;28;20046;-83
2022/01/11 10:39:37;;;;;;;22.42;10.63;;;0.70;99.90;;;;;;12387193;28;20490;-82
2022/01/11 10:45:41;;;;;;;39.20;9.85;;;0.70;99.90;;;;;;12390495;28;20692;-82
2022/01/11 10:51:43;;;;;;;191.43;13.38;;;0.80;99.90;;;;;;12379343;28;20038;-82
2022/01/11 10:57:51;;;;;;;191.45;13.20;;;0.90;99.90;;;;;;12385224;28;20711;-85
2022/01/11 11:03:52;;;;;;;157.80;14.13;;;1.00;99.90;;;;;;12387614;28;20071;-84
2022/01/11 11:09:54;;;;;;;94.65;11.13;;;1.20;99.90;;;;;;12386600;28;20142;-82
2022/01/11 11:16:08;;;;;;;281.13;14.77;;;1.40;99.90;;;;;;12390846;28;20636;-82
2022/01/11 11:22:10;;;;;;;182.07;13.90;;;1.70;99.90;;;;;;12383043;28;20061;-82
2022/01/11 11:28:13;;;;;;;129.52;11.48;;;1.70;99.90;;;;;;12382423;28;20112;-83
2022/01/11 11:34:15;;;;;;;174.68;14.30;;;1.50;99.90;;;;;;12377397;28;20046;-83
2022/01/11 11:40:24;;;;;;;119.30;12.45;;;1.30;99.90;;;;;;12390173;28;20052;-84
2022/01/11 11:46:51;;;;;;;290.05;15.50;;;1.30;99.90;;;;;;12387256;28;20614;-82
2022/01/11 11:52:53;;;;;;;356.75;20.75;;;1.00;99.90;;;;;;12386425;28;21127;-85
2022/01/11 11:58:57;;;;;;;243.55;15.93;;;1.30;99.90;;;;;;12397667;28;20050;-85
2022/01/11 12:05:00;;;;;;;258.33;15.27;;;1.40;99.90;;;;;;12377766;28;20109;-83
2022/01/11 12:11:08;;;;;;;77.85;12.80;;;1.50;99.90;;;;;;12387714;28;20051;-83
2022/01/11 12:17:10;;;;;;;34.47;9.40;;;1.60;99.90;;;;;;12386365;28;20108;-83
2022/01/11 12:23:20;;;;;;;30.45;9.65;;;1.80;99.90;;;;;;12383702;28;20177;-84
2022/01/11 12:29:25;;;;;;;15.77;10.35;;;2.00;99.90;;;;;;12385708;28;20412;-83
2022/01/11 12:35:27;;;;;;;14.80;9.95;;;2.10;99.90;;;;;;12382884;28;20084;-85
2022/01/11 12:41:37;;;;;;;14.15;10.50;;;2.00;99.90;;;;;;12387993;28;20321;-85
2022/01/11 12:47:45;;;;;;;14.68;9.68;;;2.40;99.90;;;;;;12406509;28;21194;-85
2022/01/11 12:53:48;;;;;;;19.52;12.77;;;2.40;99.90;;;;;;12398355;28;20080;-83
2022/01/11 12:59:55;;;;;;;36.45;14.10;;;2.40;99.90;;;;;;12384404;28;20115;-85
2022/01/11 13:05:57;;;;;;;44.63;12.35;;;2.20;99.90;;;;;;12382730;28;20272;-84
2022/01/11 13:11:59;;;;;;;108.45;16.33;;;2.20;99.90;;;;;;12380097;28;20045;-85
2022/01/11 13:18:16;;;;;;;41.70;14.73;;;2.30;99.90;;;;;;12396818;28;20096;-84
2022/01/11 13:24:25;;;;;;;20.90;12.05;;;2.30;99.90;;;;;;12372749;28;20050;-85
2022/01/11 13:31:02;;;;;;;22.67;14.17;;;2.30;99.90;;;;;;12387249;28;20049;-84
2022/01/11 13:37:04;;;;;;;20.50;13.65;;;2.30;99.90;;;;;;12343933;28;20521;-84
2022/01/11 13:43:08;;;;;;;26.25;16.38;;;2.40;99.90;;;;;;12386150;28;20050;-85
2022/01/11 13:49:53;;;;;;;20.40;12.93;;;2.20;99.90;;;;;;12392400;28;20141;-84
2022/01/11 13:56:09;;;;;;;23.57;14.33;;;2.30;99.90;;;;;;12096568;29;20056;-84
2022/01/11 14:02:19;;;;;;;24.58;14.68;;;2.20;99.90;;;;;;12379871;28;20072;-86
2022/01/11 14:08:29;;;;;;;21.00;12.95;;;2.10;99.90;;;;;;12382090;28;20577;-84
2022/01/11 14:14:32;;;;;;;24.10;14.82;;;2.10;99.90;;;;;;12391210;28;20045;-85
2022/01/11 14:20:43;;;;;;;21.50;13.20;;;2.10;99.90;;;;;;12397091;28;20134;-86
2022/01/11 14:26:46;;;;;;;17.23;9.93;;;2.20;99.90;;;;;;12385815;28;20058;-86
2022/01/11 14:32:49;;;;;;;18.15;8.68;;;2.30;99.90;;;;;;12385355;28;20085;-84
2022/01/11 14:38:54;;;;;;;24.13;14.15;;;2.20;99.90;;;;;;12392203;28;20076;-84
2022/01/11 14:44:58;;;;;;;;;;;2.10;99.90;;;;;;12376334;28;20054;-86
2022/01/11 14:51:07;;;;;;;24.08;14.27;;;2.10;99.90;;;;;;12392198;28;19922;-86
2022/01/11 14:57:09;;;;;;;23.15;13.27;;;2.00;99.90;;;;;;12388959;28;20145;-84
2022/01/11 15:03:11;;;;;;;27.75;16.88;;;1.90;99.90;;;;;;12375945;28;20054;-84
2022/01/11 15:09:22;;;;;;;22.25;10.82;;;1.80;99.90;;;;;;12389577;28;20053;-86
2022/01/11 15:15:26;;;;;;;16.50;6.38;;;1.80;99.90;;;;;;12384797;28;20096;-84
2022/01/11 15:21:28;;;;;;;14.40;5.97;;;1.70;99.90;;;;;;12401510;28;20520;-86
2022/01/11 15:27:31;;;;;;;12.30;4.93;;;1.90;99.90;;;;;;12422057;28;20049;-84
2022/01/11 15:33:33;;;;;;;10.07;4.70;;;2.10;99.90;;;;;;12427719;28;20046;-85
2022/01/11 15:39:35;;;;;;;13.13;5.38;;;2.10;99.90;;;;;;12428926;28;20117;-86
2022/01/11 15:45:37;;;;;;;17.30;4.93;;;2.30;99.90;;;;;;12399883;28;20104;-84
2022/01/11 15:51:40;;;;;;;11.18;5.68;;;2.20;99.90;;;;;;12417848;28;20073;-84
2022/01/11 15:57:41;;;;;;;10.52;4.25;;;2.30;99.90;;;;;;12411077;28;20058;-86
2022/01/11 16:03:43;;;;;;;11.07;4.30;;;2.50;99.90;;;;;;12408854;28;20133;-86
2022/01/11 16:09:45;;;;;;;12.18;4.82;;;2.60;99.90;;;;;;12413595;28;20061;-85
2022/01/11 16:15:48;;;;;;;7.90;3.90;;;2.60;99.90;;;;;;12406957;28;20046;-85
2022/01/11 16:21:50;;;;;;;9.50;3.92;;;2.50;99.90;;;;;;12404944;28;20049;-86
2022/01/11 16:27:55;;;;;;;10.00;4.43;;;2.60;99.90;;;;;;12400288;28;20165;-85
2022/01/11 16:34:01;;;;;;;12.90;4.53;;;2.50;99.90;;;;;;12399373;28;20441;-83
2022/01/11 16:40:08;;;;;;;13.57;6.32;;;2.30;99.90;;;;;;12402325;28;20156;-86
2022/01/11 16:46:12;;;;;;;13.40;5.78;;;2.20;99.90;;;;;;12393870;28;20066;-84
2022/01/11 16:52:14;;;;;;;15.68;5.30;;;2.20;99.90;;;;;;12382373;28;20073;-85
2022/01/11 16:58:16;;;;;;;9.43;4.32;;;2.20;99.90;;;;;;12399945;28;20066;-86
2022/01/11 17:04:20;;;;;;;9.82;4.22;;;2.40;99.90;;;;;;12403597;28;20757;-85
2022/01/11 17:10:22;;;;;;;12.73;4.75;;;2.50;99.90;;;;;;12379988;28;20099;-85
2022/01/11 17:16:25;;;;;;;13.93;5.72;;;2.60;99.90;;;;;;12403661;28;20066;-85
2022/01/11 17:22:27;;;;;;;18.25;6.78;;;2.60;99.90;;;;;;12401199;28;20057;-85
2022/01/11 17:28:29;;;;;;;8.93;4.53;;;2.60;99.90;;;;;;12384149;28;20085;-85
2022/01/11 17:34:33;;;;;;;10.43;4.32;;;2.60;99.90;;;;;;12397688;28;20111;-85
2022/01/11 17:40:35;;;;;;;8.73;4.00;;;2.60;99.90;;;;;;12383441;28;20077;-84
2022/01/11 17:46:37;;;;;;;10.30;3.95;;;2.50;99.90;;;;;;12391354;28;20388;-86
2022/01/11 17:52:39;;;;;;;11.93;4.88;;;2.40;99.90;;;;;;12386574;28;20074;-84
2022/01/11 17:58:41;;;;;;;14.98;5.20;;;2.30;99.90;;;;;;12353583;28;20141;-84
2022/01/11 18:04:43;;;;;;;12.68;4.47;;;2.30;99.90;;;;;;12342883;28;20050;-86
2022/01/11 18:10:45;;;;;;;9.93;5.10;;;2.40;99.90;;;;;;12352180;28;20074;-84
2022/01/11 18:16:50;;;;;;;12.40;4.78;;;2.40;99.90;;;;;;12330118;28;20515;-86
2022/01/11 18:22:52;;;;;;;12.15;5.15;;;2.30;99.90;;;;;;12332860;28;20080;-85
2022/01/11 18:28:55;;;;;;;14.65;5.10;;;2.30;99.90;;;;;;12325593;28;20096;-85
2022/01/11 18:34:57;;;;;;;14.23;6.28;;;2.20;99.90;;;;;;12316268;28;20088;-85
2022/01/11 18:40:59;;;;;;;13.50;6.30;;;2.40;99.90;;;;;;12309135;28;20050;-86
2022/01/11 18:47:01;;;;;;;12.05;5.93;;;2.30;99.90;;;;;;12336307;28;20046;-85
2022/01/11 18:53:03;;;;;;;13.15;5.78;;;2.40;99.90;;;;;;12337795;28;20139;-85
2022/01/11 18:59:07;;;;;;;13.55;5.70;;;2.40;99.90;;;;;;12385934;28;20058;-86
2022/01/11 19:05:09;;;;;;;16.60;6.38;;;2.40;99.90;;;;;;12392631;28;20136;-85
2022/01/11 19:11:11;;;;;;;13.73;6.63;;;2.40;99.90;;;;;;12372785;28;20055;-85
2022/01/11 19:17:16;;;;;;;13.27;6.03;;;2.40;99.90;;;;;;12400042;28;20137;-84
2022/01/11 19:23:19;;;;;;;14.82;6.30;;;2.40;99.90;;;;;;12379907;28;20553;-86
2022/01/11 19:29:20;;;;;;;15.15;6.93;;;2.50;99.90;;;;;;12390183;28;20430;-86
2022/01/11 19:35:22;;;;;;;14.10;6.53;;;2.50;99.90;;;;;;12372940;28;20041;-86
2022/01/11 19:41:24;;;;;;;12.40;6.18;;;2.60;99.90;;;;;;12382551;28;20050;-86
2022/01/11 19:47:26;;;;;;;10.93;6.28;;;2.60;99.90;;;;;;12393226;28;20042;-85
2022/01/11 19:53:31;;;;;;;14.00;5.63;;;2.60;99.90;;;;;;12374724;28;20076;-86
2022/01/11 19:59:33;;;;;;;9.75;5.45;;;2.70;99.90;;;;;;12388062;28;20050;-85
2022/01/11 20:05:34;;;;;;;11.95;5.75;;;2.70;99.90;;;;;;12401070;28;20501;-85
2022/01/11 20:11:39;;;;;;;13.00;5.85;;;2.70;99.90;;;;;;12402032;28;20076;-84
2022/01/11 20:17:41;;;;;;;10.93;5.68;;;2.70;99.90;;;;;;12395121;28;20065;-85
2022/01/11 20:30:11;;;;;;;13.77;6.15;;;2.70;99.90;;;;;;12395543;28;20054;-86
2022/01/11 20:36:13;;;;;;;16.98;6.15;;;2.70;99.90;;;;;;12402381;28;20544;-85
2022/01/11 20:42:15;;;;;;;12.93;5.82;;;2.60;99.90;;;;;;12386126;28;20054;-85
2022/01/11 20:48:17;;;;;;;14.70;5.88;;;2.50;99.90;;;;;;12404440;28;20046;-84
2022/01/11 20:54:19;;;;;;;12.77;5.63;;;2.60;99.90;;;;;;12381925;28;20065;-84
2022/01/11 21:00:25;;;;;;;12.98;5.90;;;2.50;99.90;;;;;;12405982;28;20486;-85
2022/01/11 21:06:27;;;;;;;10.98;6.15;;;2.50;99.90;;;;;;12400496;28;20043;-85
2022/01/11 21:12:29;;;;;;;17.02;6.70;;;2.50;99.90;;;;;;12401848;28;20104;-85
2022/01/11 21:24:51;;;;;;;13.82;6.25;;;2.40;99.90;;;;;;12399877;28;20050;-87
2022/01/11 21:30:54;;;;;;;12.77;5.78;;;2.40;99.90;;;;;;12386165;28;20041;-87
2022/01/11 21:36:56;;;;;;;15.25;6.28;;;2.40;99.90;;;;;;12384981;28;20547;-86
2022/01/11 21:42:58;;;;;;;13.05;6.00;;;2.40;99.90;;;;;;12392186;28;20054;-85
2022/01/11 21:49:00;;;;;;;13.38;5.50;;;2.30;99.90;;;;;;12433192;28;20096;-86
2022/01/11 21:55:03;;;;;;;9.38;5.50;;;2.30;99.90;;;;;;12380690;28;20108;-86
2022/01/11 22:01:05;;;;;;;10.57;5.03;;;2.30;99.90;;;;;;12382923;28;20054;-85
2022/01/11 22:07:08;;;;;;;12.85;6.20;;;2.20;99.90;;;;;;12378885;28;20581;-85
2022/01/11 22:13:14;;;;;;;13.02;5.38;;;2.20;99.90;;;;;;12387104;28;20692;-84
2022/01/11 22:19:22;;;;;;;12.43;5.32;;;2.20;99.90;;;;;;12394317;28;20057;-85
2022/01/11 22:25:26;;;;;;;11.57;5.00;;;2.20;99.90;;;;;;12400925;28;20043;-85
2022/01/11 22:31:28;;;;;;;8.88;4.65;;;2.30;99.90;;;;;;12395825;28;20474;-85
2022/01/11 22:37:30;;;;;;;6.97;4.13;;;2.30;99.90;;;;;;12398378;28;20096;-85
2022/01/11 22:43:32;;;;;;;9.90;4.32;;;2.40;99.90;;;;;;12396854;28;20053;-84
2022/01/11 22:49:34;;;;;;;11.65;4.15;;;2.50;99.90;;;;;;12399731;28;20042;-85
2022/01/11 22:55:36;;;;;;;11.63;4.20;;;2.50;99.90;;;;;;12379484;28;20090;-85
2022/01/11 23:01:38;;;;;;;10.90;4.53;;;2.60;99.90;;;;;;12379668;28;20065;-85
2022/01/11 23:07:46;;;;;;;11.70;4.57;;;2.60;99.90;;;;;;12382856;28;20054;-84
2022/01/11 23:20:06;;;;;;;9.07;4.70;;;2.60;99.90;;;;;;12393697;28;20053;-85
2022/01/11 23:26:09;;;;;;;11.80;4.80;;;2.60;99.90;;;;;;12377674;28;20092;-85
2022/01/11 23:32:11;;;;;;;8.70;4.63;;;2.60;99.90;;;;;;12397701;28;20046;-86
2022/01/11 23:44:31;;;;;;;14.32;4.63;;;2.60;99.90;;;;;;12398808;28;20054;-85
2022/01/11 23:50:33;;;;;;;10.55;4.60;;;2.60;99.90;;;;;;12400973;28;20149;-85
2022/01/11 23:56:37;;;;;;;10.65;4.55;;;2.60;99.90;;;;;;12396270;28;20244;-85
